Time;durP1;ratioP1;P1;durP2;ratioP2;P2;SDS_P1;SDS_P2;PMS_P1;PMS_P2;Temp;Humidity;BMP_temperature;BMP_pressure;BME280_temperature;BME280_humidity;BME280_pressure;Samples;Min_cycle;Max_cycle;Signal;HPM_P1;HPM_P2
2023/03/02 00:04:04;;;;;;;12.77;4.65;;;;;;;;;;6050376;23;20123;-86
2023/03/02 00:18:27;;;;;;;13.20;5.20;;;;;;;;;;6066073;23;20062;-87
2023/03/02 00:28:00;;;;;;;18.88;4.15;;;;;;;;;;6038119;23;20084;-86
2023/03/02 00:32:50;;;;;;;9.00;4.32;;;;;;;;;;6043405;23;20026;-86
2023/03/02 00:51:50;;;;;;;7.85;3.80;;;;;;;;;;5983738;24;20192;-86
2023/03/02 01:01:18;;;;;;;8.80;3.72;;;;;;;;;;6039297;23;20360;-86
2023/03/02 01:06:01;;;;;;;10.23;3.70;;;;;;;;;;6022577;23;20019;-86
2023/03/02 01:24:48;;;;;;;10.35;4.60;;;;;;;;;;6010873;23;20081;-86
2023/03/02 01:38:53;;;;;;;9.43;4.60;;;;;;;;;;5900323;24;20018;-86
2023/03/02 09:45:53;;;;;;;12.13;4.95;;;;;;;;;;6187047;23;20108;-87
2023/03/02 09:50:08;;;;;;;11.23;4.78;;;;;;;;;;6128165;23;20010;-84
2023/03/02 09:53:35;;;;;;;14.50;5.30;;;;;;;;;;6116266;23;20026;-84
2023/03/02 09:56:58;;;;;;;18.25;5.18;;;;;;;;;;6092202;23;20273;-84
2023/03/02 10:00:35;;;;;;;12.13;4.97;;;;;;;;;;6094738;23;20029;-84
2023/03/02 10:03:39;;;;;;;12.05;5.00;;;;;;;;;;6093927;23;20370;-84
2023/03/02 10:07:48;;;;;;;12.10;5.18;;;;;;;;;;6184759;23;20690;-84
2023/03/02 10:10:49;;;;;;;11.40;4.40;;;;;;;;;;6180769;23;20024;-84
2023/03/02 10:14:19;;;;;;;13.77;5.20;;;;;;;;;;6162084;23;20457;-84
2023/03/02 10:17:58;;;;;;;14.85;5.25;;;;;;;;;;6214708;23;20013;-84
2023/03/02 10:21:14;;;;;;;12.48;5.07;;;;;;;;;;6333727;22;20459;-85
2023/03/02 10:24:45;;;;;;;11.98;5.32;;;;;;;;;;6303259;22;20464;-84
2023/03/02 10:28:18;;;;;;;13.60;5.13;;;;;;;;;;6289694;22;20323;-85
2023/03/02 10:31:45;;;;;;;9.88;4.35;;;;;;;;;;6287323;22;20704;-84
2023/03/02 10:35:39;;;;;;;9.95;4.35;;;;;;;;;;6334003;22;20466;-85
2023/03/02 10:39:14;;;;;;;11.25;3.78;;;;;;;;;;6333908;22;20019;-84
2023/03/02 10:42:51;;;;;;;12.32;4.97;;;;;;;;;;6319104;22;20462;-85
2023/03/02 10:45:44;;;;;;;;;;;;;;;;;;6307820;22;20072;-84
2023/03/02 10:49:04;;;;;;;12.40;5.32;;;;;;;;;;6301637;22;19934;-84
2023/03/02 10:52:51;;;;;;;14.35;5.05;;;;;;;;;;6332603;22;20460;-84
2023/03/02 10:56:34;;;;;;;12.38;4.95;;;;;;;;;;6334995;22;20011;-84
2023/03/02 10:59:58;;;;;;;13.82;5.78;;;;;;;;;;6345296;22;20447;-84
2023/03/02 11:03:19;;;;;;;11.60;4.88;;;;;;;;;;6305368;22;20090;-84
2023/03/02 11:06:35;;;;;;;14.15;5.85;;;;;;;;;;6270617;22;20018;-84
2023/03/02 11:10:08;;;;;;;13.90;5.75;;;;;;;;;;6298331;22;20021;-84
2023/03/02 11:13:56;;;;;;;12.82;5.28;;;;;;;;;;6280365;22;20106;-85
2023/03/02 11:17:20;;;;;;;12.77;4.65;;;;;;;;;;6309605;22;20030;-84
2023/03/02 11:20:51;;;;;;;11.48;4.28;;;;;;;;;;6330297;22;20015;-85
2023/03/02 11:23:58;;;;;;;;;;;;;;;;;;6294482;22;20071;-84
2023/03/02 11:27:09;;;;;;;9.82;4.38;;;;;;;;;;6305849;22;19925;-86
2023/03/02 11:36:19;;;;;;;10.88;4.45;;;;;;;;;;6233978;23;20035;-86
2023/03/02 11:41:28;;;;;;;14.05;4.82;;;;;;;;;;6061433;23;20181;-86
2023/03/02 11:50:46;;;;;;;8.95;4.32;;;;;;;;;;5929751;24;20057;-84
2023/03/02 11:55:32;;;;;;;11.73;4.55;;;;;;;;;;5760055;24;20645;-85
2023/03/02 12:23:20;;;;;;;11.90;4.30;;;;;;;;;;5904443;24;20480;-85
2023/03/02 12:28:08;;;;;;;9.98;3.60;;;;;;;;;;5868703;24;20092;-86
2023/03/02 12:37:38;;;;;;;8.20;3.53;;;;;;;;;;5691030;25;20133;-85
2023/03/02 12:42:20;;;;;;;8.20;3.88;;;;;;;;;;5715447;25;20112;-85
2023/03/02 12:46:42;;;;;;;8.98;3.33;;;;;;;;;;5691710;25;20028;-86
2023/03/02 12:51:20;;;;;;;14.00;6.40;;;;;;;;;;5708088;25;20526;-85
2023/03/02 12:56:01;;;;;;;9.60;3.97;;;;;;;;;;5758394;24;20038;-86
2023/03/02 13:01:06;;;;;;;9.13;4.53;;;;;;;;;;5890100;24;20026;-85
2023/03/02 13:06:02;;;;;;;9.52;4.30;;;;;;;;;;5873604;24;20107;-85
2023/03/02 13:10:57;;;;;;;8.57;3.55;;;;;;;;;;5838981;24;20130;-85
2023/03/02 13:15:30;;;;;;;8.18;4.07;;;;;;;;;;5892387;24;20087;-85
2023/03/02 13:20:01;;;;;;;7.13;3.40;;;;;;;;;;5891936;24;20420;-85
2023/03/02 13:25:01;;;;;;;9.55;3.88;;;;;;;;;;5958565;23;20028;-85
2023/03/02 13:38:58;;;;;;;;;;;;;;;;;;5767044;24;20028;-86
2023/03/02 13:58:03;;;;;;;8.00;3.25;;;;;;;;;;5667622;25;20057;-85
2023/03/02 16:44:06;;;;;;;45.85;22.27;;;;;;;;;;6255737;22;1421955;-84
2023/03/02 16:46:38;;;;;;;27.10;12.93;;;;;;;;;;6280029;22;20016;-86
2023/03/02 16:50:04;;;;;;;18.85;8.75;;;;;;;;;;6257902;22;20022;-85
2023/03/02 16:54:44;;;;;;;40.10;16.33;;;;;;;;;;6177119;23;20020;-86
2023/03/02 16:59:45;;;;;;;15.93;7.25;;;;;;;;;;6099372;23;20029;-86
2023/03/02 17:04:20;;;;;;;18.80;7.43;;;;;;;;;;6015569;23;20082;-86
2023/03/02 17:09:06;;;;;;;14.23;6.50;;;;;;;;;;5976181;24;20103;-87
2023/03/02 17:18:28;;;;;;;21.90;8.90;;;;;;;;;;5891716;24;20025;-86
2023/03/02 17:23:17;;;;;;;20.38;10.10;;;;;;;;;;5741292;25;20048;-87
2023/03/02 20:09:59;;;;;;;15.65;6.60;;;;;;;;;;6210074;23;20401;-87
2023/03/02 20:19:14;;;;;;;14.15;6.28;;;;;;;;;;6097047;23;20078;-86
2023/03/02 20:33:37;;;;;;;17.15;7.53;;;;;;;;;;6009909;23;20146;-85
2023/03/02 20:52:39;;;;;;;18.58;7.38;;;;;;;;;;5998015;23;20014;-86
2023/03/02 21:10:50;;;;;;;;;;;;;;;;;;5928833;24;20073;-86
2023/03/02 21:33:38;;;;;;;19.27;8.45;;;;;;;;;;5995279;23;20027;-86
